createdAt,value
2023-01-06T00:02:42.736Z,2.94
2023-01-06T00:22:48.435Z,3.23
2023-01-06T00:42:54.189Z,3.55
2023-01-06T01:03:00.000Z,3.58
2023-01-06T01:23:06.069Z,3.40
2023-01-06T01:43:12.264Z,3.14
2023-01-06T02:03:18.011Z,3.95
2023-01-06T02:23:23.722Z,4.17
2023-01-06T02:43:29.472Z,4.15
2023-01-06T03:03:35.225Z,4.96
2023-01-06T03:23:40.969Z,4.35
2023-01-06T03:43:46.739Z,4.19
2023-01-06T04:03:52.497Z,5.98
2023-01-06T04:23:58.270Z,5.98
2023-01-06T04:44:04.025Z,6.98
2023-01-06T05:04:09.834Z,7.00
2023-01-06T05:24:15.550Z,7.31
2023-01-06T05:44:21.293Z,9.79
2023-01-06T06:04:27.062Z,10.24
2023-01-06T06:24:32.844Z,10.40
2023-01-06T06:44:38.688Z,10.46
2023-01-06T07:04:44.476Z,12.74
2023-01-06T07:24:50.629Z,12.83
2023-01-06T07:44:56.377Z,11.92
2023-01-06T08:05:02.678Z,13.16
2023-01-06T08:25:08.397Z,19.08
2023-01-06T08:45:14.614Z,12.22
2023-01-06T09:05:20.913Z,11.61
2023-01-06T09:25:26.533Z,11.04
2023-01-06T09:45:32.288Z,10.72
2023-01-06T10:05:38.130Z,10.12
2023-01-06T10:25:43.884Z,10.08
2023-01-06T10:45:49.689Z,8.19
2023-01-06T11:05:55.999Z,6.88
2023-01-06T11:26:01.755Z,12.69
2023-01-06T11:46:07.562Z,12.35
2023-01-06T12:06:13.639Z,9.81
2023-01-06T12:26:19.395Z,7.82
2023-01-06T12:46:25.162Z,7.55
2023-01-06T13:06:31.401Z,6.47
2023-01-06T13:26:39.071Z,5.15
2023-01-06T13:46:45.256Z,3.47
2023-01-06T14:06:50.949Z,3.87
2023-01-06T14:26:56.724Z,3.61
2023-01-06T14:47:03.669Z,2.83
2023-01-06T15:07:09.732Z,4.81
2023-01-06T15:47:24.762Z,5.68
2023-01-06T16:07:30.519Z,5.20
2023-01-06T16:27:36.260Z,7.58
2023-01-06T17:27:59.154Z,5.68
2023-01-06T17:48:04.860Z,9.08
2023-01-06T18:08:10.618Z,8.53
2023-01-06T18:28:16.368Z,10.24
2023-01-06T18:48:22.153Z,8.45
2023-01-06T19:08:27.877Z,7.22
2023-01-06T19:28:34.097Z,6.95
2023-01-06T19:48:39.854Z,7.09
2023-01-06T20:08:45.649Z,9.25
2023-01-06T20:28:51.378Z,8.91
2023-01-06T20:48:57.573Z,7.89
2023-01-06T21:09:03.814Z,7.15
2023-01-06T21:29:10.082Z,6.46
2023-01-06T21:49:15.834Z,5.88
2023-01-06T22:09:22.038Z,5.42
2023-01-06T22:29:27.845Z,6.54
2023-01-06T22:49:33.668Z,8.11
2023-01-06T23:09:39.362Z,8.60
2023-01-06T23:29:45.150Z,9.73
2023-01-06T23:49:51.406Z,8.29
